VTSH

Details ICAO VTSH
Name Songkhla
Region Thailand
Timezone Asia/Bangkok (UTC+7.0)
Plans Departing 1
Arriving 2
Stats Elevation 12 ft / 4 m (AMSL)
Location 7.186500° 100.608078°
Runways 1
Magnetic Variation 0.257° W
Sunrise 2017-12-10 23:20:46 UTC / 2017-12-11 06:20:46 Local
Sunset 2017-12-11 11:03:32 UTC / 2017-12-11 18:03:32 Local
Advertisement - Login to hide

Runways

ID Width Length Bearing (true) Bearing (mag) Surface Threshold Offset Overrun Length
13 148 ft / 45 m 4,942 ft / 1,506 m 134.88° 135.14° Asphalt 0 ft / 0 m 0 ft / 0 m
31 148 ft / 45 m 4,942 ft / 1,506 m 314.88° 315.14° Asphalt 0 ft / 0 m 0 ft / 0 m

Map

Weather


0- 5 10 15 20 25 30 35+ Temperature / ° C

Clouds and Precipitation
Forecast for 2017-12-11 06:00 UTC. Updated an hour ago

Ground ~20,000 ft ~40,000 ft Winds

METAR

VTSH 110200Z 06006KT 9000 FEW020 29/24 Q1014 NOSIG

TAF

TAF VTSH 102300Z 1100/1124 06005KT 9999 FEW020

Frequencies

Tower 126.20 MHz TWR
Warning: Do not use this data for real-world aviation or navigation. No guarantee of current accuracy is given.